Time;durP1;ratioP1;P1;durP2;ratioP2;P2;SDS_P1;SDS_P2;PMS_P1;PMS_P2;Temp;Humidity;BMP_temperature;BMP_pressure;BME280_temperature;BME280_humidity;BME280_pressure;Samples;Min_cycle;Max_cycle;Signal;HPM_P1;HPM_P2
2019/08/10 00:01:42;;;;;;;7.1;3;;;;;;;22.52;92.92578;958.1974;;;;
2019/08/10 00:04:07;;;;;;;6.9;3.1;;;;;;;22.7;92.65625;958.2545;;;;
2019/08/10 00:06:33;;;;;;;5.4;3.1;;;;;;;22.59;91.92383;958.214;;;;
2019/08/10 00:08:58;;;;;;;3.8;3;;;;;;;22.46;92.79492;958.0715;;;;
2019/08/10 00:11:23;;;;;;;4.8;3.1;;;;;;;22.53;93.76563;957.9675;;;;
2019/08/10 00:13:48;;;;;;;5.6;3.4;;;;;;;22.54;93.17773;957.9805;;;;
2019/08/10 00:16:13;;;;;;;5.7;3.2;;;;;;;22.54;93.33398;958.0184;;;;
2019/08/10 00:18:38;;;;;;;3.3;3;;;;;;;22.49;95.03516;957.9885;;;;
2019/08/10 00:21:03;;;;;;;6;3.2;;;;;;;22.42;95.2207;958.0031;;;;
2019/08/10 00:23:28;;;;;;;4.6;3.1;;;;;;;22.52;94.91309;957.8978;;;;
2019/08/10 00:25:53;;;;;;;4.6;3.1;;;;;;;22.4;95.31348;957.7999;;;;
2019/08/10 00:28:18;;;;;;;4.3;3.2;;;;;;;22.3;95.5293;957.676;;;;
2019/08/10 00:30:44;;;;;;;5.2;3.7;;;;;;;22.19;98.09277;957.6758;;;;
2019/08/10 00:33:12;;;;;;;5.4;3.5;;;;;;;22.2;97.38477;957.764;;;;
2019/08/10 00:35:37;;;;;;;5.3;3.7;;;;;;;22.29;96.25781;957.802;;;;
2019/08/10 00:38:02;;;;;;;5.9;3.3;;;;;;;22.27;97.5918;957.6902;;;;
2019/08/10 00:40:27;;;;;;;4.7;3.6;;;;;;;22.24;97.12305;957.5941;;;;
2019/08/10 00:42:52;;;;;;;3.5;3.2;;;;;;;22.19;98.11816;957.572;;;;
2019/08/10 00:45:17;;;;;;;6.1;3.5;;;;;;;22.19;97.84375;957.5696;;;;
2019/08/10 00:47:48;;;;;;;6.6;3.8;;;;;;;22.2;97.07813;957.5372;;;;
2019/08/10 00:50:20;;;;;;;4.7;3.4;;;;;;;22.27;95.45996;957.5518;;;;
2019/08/10 00:52:32;;;;;;;6.9;3.5;;;;;;;22.22;96.3623;957.5328;;;;
2019/08/10 00:54:57;;;;;;;7.1;3.7;;;;;;;22.17;96.74316;957.4981;;;;
2019/08/10 00:57:23;;;;;;;5.1;3.3;;;;;;;22.24;97.62988;957.4414;;;;
2019/08/10 00:59:48;;;;;;;5.7;3.5;;;;;;;22.2;97.7041;957.5455;;;;
2019/08/10 01:02:13;;;;;;;6.3;3.5;;;;;;;22.14;98.70703;957.6118;;;;
2019/08/10 01:04:38;;;;;;;5.8;3.4;;;;;;;22.13;98.2207;957.5237;;;;
2019/08/10 01:07:03;;;;;;;4.7;3.5;;;;;;;22.18;98.24414;957.5906;;;;
2019/08/10 01:09:28;;;;;;;4.7;3.7;;;;;;;22.24;98.81348;957.6139;;;;
2019/08/10 01:11:53;;;;;;;5.8;3.7;;;;;;;22.22;98.26563;957.6334;;;;
2019/08/10 01:14:18;;;;;;;7;3.8;;;;;;;22.06;96.6582;957.8314;;;;
2019/08/10 01:16:43;;;;;;;5;3.5;;;;;;;22.14;97.96387;957.932;;;;
2019/08/10 01:19:08;;;;;;;5.6;3.8;;;;;;;22.16;98.22852;957.9422;;;;
2019/08/10 01:21:33;;;;;;;5.8;3.7;;;;;;;22.24;96.66211;957.8862;;;;
2019/08/10 01:23:59;;;;;;;4.6;3.7;;;;;;;22.21;97.86035;957.8948;;;;
2019/08/10 01:26:24;;;;;;;6.4;4;;;;;;;22.08;98.48242;957.889;;;;
2019/08/10 01:28:49;;;;;;;6.6;4.1;;;;;;;22.12;97.74609;957.9244;;;;
2019/08/10 01:31:14;;;;;;;4.2;3.4;;;;;;;22.17;95.67578;957.9044;;;;
2019/08/10 01:33:39;;;;;;;5.3;3.6;;;;;;;22.14;97.12305;957.9445;;;;
2019/08/10 01:36:04;;;;;;;4.3;3.2;;;;;;;22.14;94.94922;957.9295;;;;
2019/08/10 01:38:29;;;;;;;6.4;3.7;;;;;;;22.07;94.82715;957.954;;;;
2019/08/10 01:40:54;;;;;;;6.1;3.3;;;;;;;22.15;94.8584;958.0297;;;;
2019/08/10 01:43:20;;;;;;;4.7;3.5;;;;;;;22.01;95.50098;958.0593;;;;
2019/08/10 01:45:45;;;;;;;5.2;3.6;;;;;;;22.07;95.2207;957.9796;;;;
2019/08/10 01:48:10;;;;;;;4.2;3.2;;;;;;;22.02;95.61133;957.9788;;;;
2019/08/10 01:50:35;;;;;;;5.2;3.9;;;;;;;21.98;98.44629;958.0162;;;;
2019/08/10 01:53:00;;;;;;;6;3.7;;;;;;;21.98;97.15918;958.0511;;;;
2019/08/10 01:55:26;;;;;;;4.3;3.6;;;;;;;21.91;95.57422;957.9786;;;;
2019/08/10 01:57:51;;;;;;;5.1;3.5;;;;;;;21.9;97.01367;958.0212;;;;
2019/08/10 02:00:16;;;;;;;4.6;3.8;;;;;;;21.94;98.42676;957.9919;;;;
2019/08/10 02:02:41;;;;;;;4.4;3.5;;;;;;;21.94;97.93262;957.9841;;;;
2019/08/10 02:05:11;;;;;;;5.4;3.6;;;;;;;21.94;97.74316;957.9509;;;;
2019/08/10 02:07:32;;;;;;;4.1;3.3;;;;;;;21.98;95.14063;957.9174;;;;
2019/08/10 02:09:57;;;;;;;4.4;3.6;;;;;;;21.92;96.93457;957.8942;;;;
2019/08/10 02:12:23;;;;;;;4.4;3.2;;;;;;;21.99;95.61523;957.8627;;;;
2019/08/10 02:14:48;;;;;;;3.6;3.3;;;;;;;21.97;96.50879;957.7975;;;;
2019/08/10 02:17:13;;;;;;;4;3.3;;;;;;;22.02;96.11719;957.8038;;;;
2019/08/10 02:19:39;;;;;;;4.4;3.2;;;;;;;21.98;97.31445;957.8567;;;;
2019/08/10 02:22:04;;;;;;;4.8;3.3;;;;;;;21.94;98.22754;957.8937;;;;
2019/08/10 02:24:29;;;;;;;5.5;3.5;;;;;;;21.97;98.33789;957.8416;;;;
2019/08/10 02:26:55;;;;;;;6.5;3.7;;;;;;;21.86;97.43066;957.9124;;;;
2019/08/10 02:29:20;;;;;;;4.9;3.5;;;;;;;22.06;95.4043;957.9113;;;;
2019/08/10 02:31:45;;;;;;;4.9;3.3;;;;;;;22.18;93.97754;957.9394;;;;
2019/08/10 02:34:10;;;;;;;4.8;3.2;;;;;;;22.06;96.2334;957.9417;;;;
2019/08/10 02:36:35;;;;;;;4.3;3.3;;;;;;;22.01;94.7334;958.0661;;;;
2019/08/10 02:39:00;;;;;;;3.6;2.7;;;;;;;22.04;91.92676;958.0304;;;;
2019/08/10 02:41:26;;;;;;;4.5;3;;;;;;;22.12;92.83008;958.1503;;;;
2019/08/10 02:43:51;;;;;;;5;3;;;;;;;22.04;93.66406;958.2355;;;;
2019/08/10 02:46:16;;;;;;;3.4;2.9;;;;;;;22.01;94.11914;958.2122;;;;
2019/08/10 02:48:42;;;;;;;4.1;3;;;;;;;21.86;94.34668;958.2628;;;;
2019/08/10 02:51:09;;;;;;;3.4;3;;;;;;;21.82;95.56641;958.3212;;;;
2019/08/10 02:53:34;;;;;;;4.2;3.1;;;;;;;21.79;95.19531;958.2589;;;;
2019/08/10 02:55:59;;;;;;;3.2;2.9;;;;;;;21.75;96.8623;958.2974;;;;
2019/08/10 02:58:24;;;;;;;3.7;3.1;;;;;;;21.9;95.64355;958.2958;;;;
2019/08/10 03:00:49;;;;;;;4.7;3;;;;;;;21.88;96.90332;958.2505;;;;
2019/08/10 03:03:14;;;;;;;3.5;3.2;;;;;;;21.89;96.45605;958.2726;;;;
2019/08/10 03:05:41;;;;;;;4.1;3.1;;;;;;;21.85;95.14941;958.2198;;;;
2019/08/10 03:08:06;;;;;;;3.9;3;;;;;;;21.78;97.43652;958.177;;;;
2019/08/10 03:10:31;;;;;;;4.2;3.4;;;;;;;21.76;97.51563;958.1344;;;;
2019/08/10 03:12:57;;;;;;;3.4;2.8;;;;;;;21.77;97.93066;958.2426;;;;
2019/08/10 03:15:22;;;;;;;5;2.9;;;;;;;21.9;96.91699;958.2379;;;;
2019/08/10 03:17:47;;;;;;;4.5;3.4;;;;;;;21.88;97.11328;958.1969;;;;
2019/08/10 03:20:12;;;;;;;3.7;3.4;;;;;;;21.88;97.39746;958.2075;;;;
2019/08/10 03:22:37;;;;;;;4.2;3.1;;;;;;;21.84;96.90527;958.2011;;;;
2019/08/10 03:25:02;;;;;;;4.3;3.2;;;;;;;21.87;95.70801;958.2028;;;;
2019/08/10 03:27:27;;;;;;;4.6;3.4;;;;;;;21.9;97.61328;958.1483;;;;
2019/08/10 03:29:52;;;;;;;4.1;3.1;;;;;;;21.85;97.86523;958.1418;;;;
2019/08/10 03:32:18;;;;;;;4.1;3;;;;;;;21.94;96.01855;958.1651;;;;
2019/08/10 03:34:42;;;;;;;3.5;3.2;;;;;;;21.89;97.6377;958.3234;;;;
2019/08/10 03:37:08;;;;;;;4.4;2.8;;;;;;;22.07;94.99414;958.3217;;;;
2019/08/10 03:39:33;;;;;;;4.2;3.3;;;;;;;21.99;96.4541;958.2892;;;;
2019/08/10 03:41:58;;;;;;;4.5;3.2;;;;;;;22.01;97.0127;958.3066;;;;
2019/08/10 03:44:23;;;;;;;3.4;3.1;;;;;;;22.01;97.41504;958.3749;;;;
2019/08/10 03:46:48;;;;;;;3.6;3;;;;;;;22.01;96.1748;958.3813;;;;
2019/08/10 03:49:13;;;;;;;5;3.3;;;;;;;21.95;96.33789;958.3683;;;;
2019/08/10 03:51:38;;;;;;;6.2;3.2;;;;;;;21.9;98.79688;958.4169;;;;
2019/08/10 03:54:03;;;;;;;4.8;3.2;;;;;;;21.88;97.88379;958.4779;;;;
2019/08/10 03:56:28;;;;;;;3.3;2.7;;;;;;;21.9;96.69238;958.5317;;;;
2019/08/10 03:58:54;;;;;;;4.9;3.2;;;;;;;21.94;97.51758;958.5447;;;;
2019/08/10 04:02:27;;;;;;;4.1;3.2;;;;;;;21.98;97.85742;958.4901;;;;
2019/08/10 04:04:52;;;;;;;3.6;3.1;;;;;;;22;97.86133;958.4059;;;;
2019/08/10 04:07:17;;;;;;;3.8;3.1;;;;;;;22.03;97.56055;958.3853;;;;
2019/08/10 04:09:42;;;;;;;5.7;3.2;;;;;;;22.02;98.06641;958.3848;;;;
2019/08/10 04:12:07;;;;;;;4.5;3.1;;;;;;;21.97;97.96191;958.4108;;;;
2019/08/10 04:14:32;;;;;;;5.2;3.5;;;;;;;21.85;97.49707;958.4797;;;;
2019/08/10 04:16:59;;;;;;;4.8;3;;;;;;;21.82;96.16895;958.4208;;;;
2019/08/10 04:19:23;;;;;;;5;3.4;;;;;;;21.91;97.78125;958.3978;;;;
2019/08/10 04:21:48;;;;;;;5.5;3.6;;;;;;;21.88;97.71582;958.4707;;;;
2019/08/10 04:24:13;;;;;;;5;3;;;;;;;21.83;95.96875;958.5516;;;;
2019/08/10 04:26:38;;;;;;;4.9;3.2;;;;;;;21.83;97.11523;958.5972;;;;
2019/08/10 04:29:03;;;;;;;4.6;3.2;;;;;;;21.77;95.27148;958.6602;;;;
2019/08/10 04:31:28;;;;;;;4.5;3.2;;;;;;;21.75;94.87793;958.6475;;;;
2019/08/10 04:33:53;;;;;;;5.3;3.3;;;;;;;21.78;97.01172;958.6642;;;;
2019/08/10 04:36:18;;;;;;;6.3;3.7;;;;;;;21.77;96.34668;958.6335;;;;
2019/08/10 04:38:43;;;;;;;5.4;3.7;;;;;;;21.74;97.6748;958.6152;;;;
2019/08/10 04:41:08;;;;;;;5;3.5;;;;;;;21.65;97.44238;958.6176;;;;
2019/08/10 04:43:34;;;;;;;4.1;3.3;;;;;;;21.72;96.70215;958.6972;;;;
2019/08/10 04:45:59;;;;;;;6.6;3.5;;;;;;;21.75;96.05859;958.777;;;;
2019/08/10 04:48:24;;;;;;;5.6;3.5;;;;;;;21.84;94.1416;958.6891;;;;
2019/08/10 04:50:49;;;;;;;4.4;3.7;;;;;;;21.84;96.29102;958.7;;;;
2019/08/10 04:53:14;;;;;;;4.5;3.6;;;;;;;21.87;94.49023;958.7548;;;;
2019/08/10 04:55:39;;;;;;;4.8;3.1;;;;;;;21.94;93.87891;958.8309;;;;
2019/08/10 04:58:05;;;;;;;4.5;3.5;;;;;;;21.95;94.86133;958.7914;;;;
2019/08/10 05:00:30;;;;;;;4.8;3.4;;;;;;;21.94;95.33203;958.7787;;;;
2019/08/10 05:02:55;;;;;;;5.6;3.5;;;;;;;21.96;94.14258;958.7939;;;;
2019/08/10 05:05:20;;;;;;;4.1;3.5;;;;;;;21.85;95.67871;958.8381;;;;
2019/08/10 05:07:46;;;;;;;3.8;3.2;;;;;;;21.92;94.40723;958.7609;;;;
2019/08/10 05:10:11;;;;;;;4.4;3.7;;;;;;;21.91;94.81836;958.7886;;;;
2019/08/10 05:12:36;;;;;;;5.1;3.9;;;;;;;21.72;95.51953;958.8733;;;;
2019/08/10 05:15:02;;;;;;;4.3;3.9;;;;;;;21.81;95.54102;958.7903;;;;
2019/08/10 05:17:27;;;;;;;5;4.1;;;;;;;21.8;96.65918;958.8279;;;;
2019/08/10 05:19:52;;;;;;;7.2;4.3;;;;;;;21.72;95.95703;958.8666;;;;
2019/08/10 05:22:17;;;;;;;6.1;4.2;;;;;;;21.68;95.99609;958.8592;;;;
2019/08/10 05:24:42;;;;;;;4.8;4.3;;;;;;;21.81;96.64941;958.8806;;;;
2019/08/10 05:27:07;;;;;;;6.1;4.4;;;;;;;21.88;95.41504;958.9419;;;;
2019/08/10 05:29:33;;;;;;;5;4.2;;;;;;;21.93;95.24707;959.0478;;;;
2019/08/10 05:31:58;;;;;;;5.1;4.6;;;;;;;21.96;95.83203;959.1591;;;;
2019/08/10 05:34:23;;;;;;;5;3.9;;;;;;;22;94.96777;959.1942;;;;
2019/08/10 05:36:48;;;;;;;5.1;4.5;;;;;;;21.96;95.99707;959.2255;;;;
2019/08/10 05:39:14;;;;;;;5;4.5;;;;;;;21.82;96.47559;959.3105;;;;
2019/08/10 05:41:39;;;;;;;5.3;4.2;;;;;;;21.89;96.2793;959.4031;;;;
2019/08/10 05:44:04;;;;;;;7;5;;;;;;;21.87;96.12012;959.5034;;;;
2019/08/10 05:46:29;;;;;;;7.5;4.8;;;;;;;21.96;95.33789;959.5358;;;;
2019/08/10 05:48:54;;;;;;;6.7;5.1;;;;;;;22.02;94.41797;959.5683;;;;
2019/08/10 05:51:20;;;;;;;7.1;5;;;;;;;21.94;95.79492;959.6117;;;;
2019/08/10 05:53:45;;;;;;;5.8;5.2;;;;;;;21.86;96.4248;959.6844;;;;
2019/08/10 05:56:10;;;;;;;7.4;4.9;;;;;;;22.09;94.66992;959.7307;;;;
2019/08/10 05:58:35;;;;;;;8.2;5.4;;;;;;;21.91;95.59766;959.791;;;;
2019/08/10 06:01:01;;;;;;;6.4;5.5;;;;;;;21.81;97.4541;959.8275;;;;
2019/08/10 06:03:26;;;;;;;8.5;5.5;;;;;;;21.82;97.34961;959.8722;;;;
2019/08/10 06:05:51;;;;;;;7.2;5.3;;;;;;;21.88;96.90137;959.9752;;;;
2019/08/10 06:08:17;;;;;;;6.6;5.4;;;;;;;21.88;96.93652;960.0549;;;;
2019/08/10 06:10:42;;;;;;;6.1;5.5;;;;;;;21.87;96.91113;960.027;;;;
2019/08/10 06:13:07;;;;;;;8;5.8;;;;;;;21.78;97.41113;960.1139;;;;
2019/08/10 06:15:32;;;;;;;8;5.9;;;;;;;21.79;97.76758;960.1096;;;;
2019/08/10 06:17:57;;;;;;;7.2;6;;;;;;;21.73;98.08789;960.1803;;;;
2019/08/10 06:20:22;;;;;;;8.2;6.2;;;;;;;21.63;99.69336;960.2748;;;;
2019/08/10 06:22:47;;;;;;;8.7;5.9;;;;;;;21.62;98.70898;960.2502;;;;
2019/08/10 06:25:15;;;;;;;7.8;6.3;;;;;;;21.54;99.78906;960.0838;;;;
2019/08/10 06:27:40;;;;;;;6.6;5.9;;;;;;;21.65;98.14063;960.0602;;;;
2019/08/10 06:30:05;;;;;;;5.4;4.9;;;;;;;21.73;97.16699;960.0442;;;;
2019/08/10 06:32:30;;;;;;;5.2;4.3;;;;;;;21.76;97.25391;960.1616;;;;
2019/08/10 06:34:55;;;;;;;6.5;4.9;;;;;;;21.62;98.6875;960.1763;;;;
2019/08/10 06:37:20;;;;;;;5.7;4.1;;;;;;;21.76;96.42676;960.1309;;;;
2019/08/10 06:39:45;;;;;;;5.1;4.6;;;;;;;21.67;97.87109;960.2225;;;;
2019/08/10 06:42:16;;;;;;;5.5;4.8;;;;;;;21.53;97.74707;960.3592;;;;
2019/08/10 06:44:36;;;;;;;5.3;4.8;;;;;;;21.45;99.11035;960.5736;;;;
2019/08/10 06:47:01;;;;;;;5.5;4.1;;;;;;;21.66;95.70898;960.5391;;;;
2019/08/10 06:49:26;;;;;;;5.1;4.2;;;;;;;21.6;95.79199;960.5071;;;;
2019/08/10 06:51:51;;;;;;;4.3;3.9;;;;;;;21.6;94.85938;960.6555;;;;
2019/08/10 06:54:16;;;;;;;5.1;3.8;;;;;;;21.43;96.37891;960.724;;;;
2019/08/10 06:56:41;;;;;;;4.6;3.3;;;;;;;21.4;94.92188;960.7985;;;;
2019/08/10 06:59:06;;;;;;;5.2;3.4;;;;;;;21.3;96.11328;960.8457;;;;
2019/08/10 07:01:31;;;;;;;5.9;3.4;;;;;;;21.2;95.50293;960.9688;;;;
2019/08/10 07:03:56;;;;;;;6;3.4;;;;;;;21.14;96.41016;961.1202;;;;
2019/08/10 07:06:21;;;;;;;3.7;3.1;;;;;;;21.29;95.04004;961.132;;;;
2019/08/10 07:08:46;;;;;;;4.9;3.4;;;;;;;21.29;95.66504;961.2191;;;;
2019/08/10 07:11:11;;;;;;;5.1;3.1;;;;;;;21.08;95.29102;961.2737;;;;
2019/08/10 07:13:37;;;;;;;3.3;2.6;;;;;;;21.19;93.27344;961.363;;;;
2019/08/10 07:16:02;;;;;;;4.2;3;;;;;;;20.98;94.36035;961.5028;;;;
2019/08/10 07:18:27;;;;;;;3.6;2.3;;;;;;;20.79;93.98047;961.5644;;;;
2019/08/10 07:20:52;;;;;;;3.3;2.6;;;;;;;20.79;93.43652;961.5851;;;;
2019/08/10 07:23:17;;;;;;;3.9;2.9;;;;;;;20.67;95.81445;961.6113;;;;
2019/08/10 07:25:42;;;;;;;4.8;2.8;;;;;;;20.67;93.98926;961.5723;;;;
2019/08/10 07:28:07;;;;;;;5;3;;;;;;;20.63;95.89941;961.5349;;;;
2019/08/10 07:30:32;;;;;;;2.9;2.4;;;;;;;20.57;96.62695;961.4787;;;;
2019/08/10 07:32:57;;;;;;;4.6;2.9;;;;;;;20.5;96.13086;961.5425;;;;
2019/08/10 07:35:23;;;;;;;6.1;3.1;;;;;;;20.46;97.00391;961.597;;;;
2019/08/10 07:37:48;;;;;;;6.8;3.3;;;;;;;20.26;98.55957;961.5853;;;;
2019/08/10 07:40:13;;;;;;;4.3;2.7;;;;;;;20.38;95.76465;961.5245;;;;
2019/08/10 07:42:38;;;;;;;4.8;3.4;;;;;;;20.23;99.38867;961.5602;;;;
2019/08/10 07:45:03;;;;;;;4;3;;;;;;;20.14;100;961.5625;;;;
2019/08/10 07:47:29;;;;;;;4.5;3;;;;;;;19.89;98.83008;961.6188;;;;
2019/08/10 07:49:53;;;;;;;4;3;;;;;;;19.88;99.89941;961.7084;;;;
2019/08/10 07:52:18;;;;;;;4;2.7;;;;;;;19.93;99.35742;961.7954;;;;
2019/08/10 07:54:43;;;;;;;5.9;2.9;;;;;;;19.79;97.92676;961.9727;;;;
2019/08/10 07:57:08;;;;;;;4.9;2.9;;;;;;;19.67;98.66406;961.9386;;;;
2019/08/10 07:59:34;;;;;;;4;2.4;;;;;;;19.6;98.06055;961.7872;;;;
2019/08/10 08:01:59;;;;;;;5.1;2.5;;;;;;;19.8;99.31543;961.6961;;;;
2019/08/10 08:04:24;;;;;;;5.1;2.7;;;;;;;19.86;97.73047;961.7789;;;;
2019/08/10 08:06:49;;;;;;;3.3;2.3;;;;;;;19.54;95.87402;961.7996;;;;
2019/08/10 08:09:14;;;;;;;4.6;2.4;;;;;;;19.51;94.72852;961.8469;;;;
2019/08/10 08:11:40;;;;;;;4.1;2.4;;;;;;;19.48;94.08594;961.9698;;;;
2019/08/10 08:14:05;;;;;;;4.4;2.2;;;;;;;19.53;96.38867;961.9731;;;;
2019/08/10 08:16:30;;;;;;;3.2;2.1;;;;;;;19.68;93.75391;961.8624;;;;
2019/08/10 08:18:56;;;;;;;3;1.9;;;;;;;19.61;92.69531;961.9233;;;;
2019/08/10 08:21:21;;;;;;;5.2;2.7;;;;;;;19.53;96.21191;961.9947;;;;
2019/08/10 08:23:46;;;;;;;3.7;2.5;;;;;;;19.34;95.68945;962.063;;;;
2019/08/10 08:26:12;;;;;;;3.9;2.5;;;;;;;19.54;96.13184;962.1022;;;;
2019/08/10 08:28:37;;;;;;;3.6;2.8;;;;;;;19.46;98.26563;962.2004;;;;
2019/08/10 08:31:02;;;;;;;4.5;2.6;;;;;;;19.55;98.08594;962.1226;;;;
2019/08/10 08:33:28;;;;;;;5.8;3;;;;;;;19.66;99.89453;962.1572;;;;
2019/08/10 08:35:53;;;;;;;5.3;2.8;;;;;;;19.58;96.30469;962.1272;;;;
2019/08/10 08:38:18;;;;;;;3.5;2.5;;;;;;;19.58;94.26172;962.1023;;;;
2019/08/10 08:40:43;;;;;;;3.9;2.7;;;;;;;19.52;97.03516;962.1799;;;;
2019/08/10 08:43:08;;;;;;;9.9;6.1;;;;;;;19.57;95.99707;962.1779;;;;
2019/08/10 08:45:33;;;;;;;5.9;4.1;;;;;;;19.56;96.60547;962.0859;;;;
2019/08/10 08:47:59;;;;;;;4.5;2.5;;;;;;;19.43;94.33496;962.133;;;;
2019/08/10 08:50:24;;;;;;;6.4;4;;;;;;;19.42;94.13379;962.0878;;;;
2019/08/10 08:52:54;;;;;;;4.9;2.7;;;;;;;19.49;94.8418;962.1283;;;;
2019/08/10 08:55:14;;;;;;;4.8;3.4;;;;;;;19.51;93.07227;962.1124;;;;
2019/08/10 08:57:39;;;;;;;5.7;3;;;;;;;19.67;92.88086;962.1215;;;;
2019/08/10 09:00:04;;;;;;;5.3;2.8;;;;;;;19.68;92.66113;962.0964;;;;
2019/08/10 09:02:29;;;;;;;3.8;2.8;;;;;;;19.52;92.18262;962.137;;;;
2019/08/10 09:04:54;;;;;;;3.8;2.6;;;;;;;19.67;94.08105;962.0131;;;;
2019/08/10 09:07:19;;;;;;;4.1;2.7;;;;;;;19.53;92.26563;962.046;;;;
2019/08/10 09:09:44;;;;;;;3.3;2.3;;;;;;;19.92;92.26563;962.0778;;;;
2019/08/10 09:12:10;;;;;;;4.2;2.3;;;;;;;20.08;90.9209;962.0533;;;;
2019/08/10 09:14:35;;;;;;;4.2;2.5;;;;;;;20.17;90.24707;962.046;;;;
2019/08/10 09:17:00;;;;;;;3.5;2.4;;;;;;;20.33;91.2334;961.9012;;;;
2019/08/10 09:19:26;;;;;;;3.5;2.3;;;;;;;20.6;89.5791;961.9039;;;;
2019/08/10 09:21:51;;;;;;;3.7;2.4;;;;;;;20.67;90.08984;961.968;;;;
2019/08/10 09:24:16;;;;;;;4.3;2.3;;;;;;;20.52;89.28027;962.0284;;;;
2019/08/10 09:26:41;;;;;;;3.7;2.3;;;;;;;20.65;88.11816;962.0838;;;;
2019/08/10 09:29:07;;;;;;;2.6;2.1;;;;;;;20.51;88.0791;962.1261;;;;
2019/08/10 09:31:32;;;;;;;3.3;2.1;;;;;;;20.62;88.84277;962.1188;;;;
2019/08/10 09:33:57;;;;;;;3.3;2.1;;;;;;;20.65;87.51758;962.1376;;;;
2019/08/10 09:36:22;;;;;;;3.1;2.1;;;;;;;20.65;89.22559;962.1308;;;;
2019/08/10 09:38:48;;;;;;;3.1;2.2;;;;;;;20.65;88.08301;962.0862;;;;
2019/08/10 09:41:13;;;;;;;2.9;2.2;;;;;;;20.54;87.89648;962.0424;;;;
2019/08/10 09:43:38;;;;;;;5;2.6;;;;;;;20.5;86.3457;962.0378;;;;
2019/08/10 09:46:03;;;;;;;3.5;2.1;;;;;;;20.6;86.50586;962.0223;;;;
2019/08/10 09:48:28;;;;;;;3.3;2.3;;;;;;;20.73;83.73047;962.0302;;;;
2019/08/10 09:50:53;;;;;;;3.8;2.3;;;;;;;21.04;85.12988;962.1069;;;;
2019/08/10 09:53:19;;;;;;;3.2;1.9;;;;;;;20.89;85.92773;962.1334;;;;
2019/08/10 09:55:44;;;;;;;5;2.5;;;;;;;20.87;86.99609;962.0998;;;;
2019/08/10 09:58:09;;;;;;;3.3;2.1;;;;;;;20.93;84.17969;962.0828;;;;
2019/08/10 10:00:35;;;;;;;4.1;2.4;;;;;;;20.98;86.42773;962.1527;;;;
2019/08/10 10:03:00;;;;;;;4.9;2.3;;;;;;;20.93;84.83984;962.1806;;;;
2019/08/10 10:05:25;;;;;;;4.8;2.2;;;;;;;20.94;86.14844;962.2626;;;;
2019/08/10 10:07:50;;;;;;;4.7;2.3;;;;;;;21.12;85.28906;962.3027;;;;
2019/08/10 10:10:15;;;;;;;3.4;2.1;;;;;;;21.08;86.58984;962.314;;;;
2019/08/10 10:12:40;;;;;;;4.6;2.2;;;;;;;21.31;84.9375;962.3438;;;;
2019/08/10 10:15:06;;;;;;;3.5;2.1;;;;;;;21.42;85.79395;962.4117;;;;
2019/08/10 10:17:31;;;;;;;5.5;2.3;;;;;;;21.46;85.62402;962.3415;;;;
2019/08/10 10:19:56;;;;;;;3.4;2.3;;;;;;;21.6;84.61426;962.3455;;;;
2019/08/10 10:22:21;;;;;;;4.3;2.2;;;;;;;21.8;82.2666;962.332;;;;
2019/08/10 10:24:47;;;;;;;4.7;2.4;;;;;;;21.63;83.0498;962.4095;;;;
2019/08/10 10:27:12;;;;;;;3.3;2.1;;;;;;;21.35;83.23242;962.4244;;;;
2019/08/10 10:29:37;;;;;;;3.7;2.4;;;;;;;21.31;83.04883;962.4742;;;;
2019/08/10 10:32:02;;;;;;;5.1;2.1;;;;;;;21.17;81.31152;962.5563;;;;
2019/08/10 10:34:27;;;;;;;4;2.1;;;;;;;21.39;83.2168;962.6555;;;;
2019/08/10 10:36:53;;;;;;;3.2;1.9;;;;;;;21.34;81.91113;962.6344;;;;
2019/08/10 10:39:18;;;;;;;4.3;2.3;;;;;;;21.45;81.96582;962.6802;;;;
2019/08/10 10:41:43;;;;;;;3.2;2.1;;;;;;;21.26;82.03613;962.6824;;;;
2019/08/10 10:44:08;;;;;;;3.5;2.1;;;;;;;21.26;81.23535;962.7261;;;;
2019/08/10 10:46:34;;;;;;;3.4;2.2;;;;;;;21.41;82.5127;962.7056;;;;
2019/08/10 10:48:59;;;;;;;3.6;2.1;;;;;;;21.48;80.09473;962.682;;;;
2019/08/10 10:51:24;;;;;;;4.6;2;;;;;;;21.55;79.93066;962.6516;;;;
2019/08/10 10:53:49;;;;;;;4.4;2.5;;;;;;;21.34;77.95801;962.7025;;;;
2019/08/10 10:56:14;;;;;;;4.6;2.4;;;;;;;21.15;80.12988;962.6819;;;;
2019/08/10 10:58:40;;;;;;;3.1;2.2;;;;;;;21.12;80.20703;962.655;;;;
2019/08/10 11:01:06;;;;;;;4.6;2.3;;;;;;;21.38;80.25391;962.7011;;;;
2019/08/10 11:03:30;;;;;;;5.2;2.2;;;;;;;21.48;75.62305;962.7244;;;;
2019/08/10 11:05:56;;;;;;;4.7;2;;;;;;;21.19;75.78613;962.7217;;;;
2019/08/10 11:08:21;;;;;;;5.2;2.5;;;;;;;21.1;76.66504;962.6372;;;;
2019/08/10 11:10:46;;;;;;;4.2;1.9;;;;;;;21.21;67.61719;962.5988;;;;
2019/08/10 11:13:12;;;;;;;4;2.1;;;;;;;21.03;69.22656;962.6067;;;;
2019/08/10 11:15:37;;;;;;;2.8;1.9;;;;;;;21.03;69.80469;962.7028;;;;
2019/08/10 11:18:02;;;;;;;4.5;1.9;;;;;;;21.05;67.76953;962.579;;;;
2019/08/10 11:20:27;;;;;;;3.3;1.8;;;;;;;20.92;68.39844;962.5399;;;;
2019/08/10 11:22:52;;;;;;;3.7;2;;;;;;;20.78;67.52832;962.6356;;;;
2019/08/10 11:25:17;;;;;;;3.4;1.8;;;;;;;20.74;67.82715;962.7385;;;;
2019/08/10 11:27:44;;;;;;;3.6;2;;;;;;;20.64;66.74219;962.7764;;;;
2019/08/10 11:30:08;;;;;;;4.5;1.9;;;;;;;20.38;73.36328;962.9397;;;;
2019/08/10 11:32:33;;;;;;;5.4;2;;;;;;;20.32;75.97852;963.0399;;;;
2019/08/10 11:34:58;;;;;;;5;2.1;;;;;;;20.09;80.39746;963.0576;;;;
2019/08/10 11:37:23;;;;;;;6.9;2;;;;;;;19.79;80.49414;963.043;;;;
2019/08/10 11:39:48;;;;;;;5.3;2;;;;;;;19.57;79.25684;963.0162;;;;
2019/08/10 11:42:13;;;;;;;5.8;2.2;;;;;;;19.38;82.54492;963.0056;;;;
2019/08/10 11:44:38;;;;;;;4.3;2.1;;;;;;;19.49;85.02344;963.002;;;;
2019/08/10 11:47:03;;;;;;;5;2.2;;;;;;;19.38;85.03613;962.9849;;;;
2019/08/10 11:49:29;;;;;;;6.6;2.4;;;;;;;19.26;83.81445;962.916;;;;
2019/08/10 11:51:55;;;;;;;6.6;2.8;;;;;;;19.18;87.04102;962.9325;;;;
2019/08/10 11:54:20;;;;;;;6.8;2.5;;;;;;;19.19;86.25391;962.8787;;;;
2019/08/10 11:56:45;;;;;;;4.8;2.1;;;;;;;19.28;86.92969;962.9447;;;;
2019/08/10 11:59:10;;;;;;;4.5;2;;;;;;;19.31;85.63281;962.884;;;;
2019/08/10 12:01:35;;;;;;;5.2;2.7;;;;;;;19.27;87.33887;962.7656;;;;
2019/08/10 12:04:01;;;;;;;7.3;2.5;;;;;;;19.09;89.00293;962.7566;;;;
2019/08/10 12:06:26;;;;;;;4.8;2.6;;;;;;;19.26;88.09961;962.7225;;;;
2019/08/10 12:08:51;;;;;;;4.9;2.4;;;;;;;19.38;88.04102;962.7271;;;;
2019/08/10 12:11:16;;;;;;;3.6;2.1;;;;;;;19.35;87.67188;962.7364;;;;
2019/08/10 12:13:42;;;;;;;5.3;2.3;;;;;;;19.19;89.04785;962.7835;;;;
2019/08/10 12:16:07;;;;;;;4.5;2.4;;;;;;;;;;;;;
2019/08/10 12:18:32;;;;;;;6;2.7;;;;;;;;;;;;;
2019/08/10 12:20:57;;;;;;;4.5;2.4;;;;;;;;;;;;;
2019/08/10 12:23:26;;;;;;;4.5;2.3;;;;;;;;;;;;;
2019/08/10 12:25:47;;;;;;;7.6;2.4;;;;;;;;;;;;;
2019/08/10 12:28:12;;;;;;;6.9;3;;;;;;;;;;;;;
2019/08/10 12:30:37;;;;;;;4.5;2.6;;;;;;;;;;;;;
2019/08/10 12:33:03;;;;;;;5.5;3.1;;;;;;;;;;;;;
2019/08/10 12:35:28;;;;;;;5.6;2.7;;;;;;;;;;;;;
2019/08/10 12:37:53;;;;;;;5.2;2.8;;;;;;;;;;;;;
2019/08/10 12:40:18;;;;;;;5.8;3;;;;;;;;;;;;;
2019/08/10 12:42:43;;;;;;;4.7;2.6;;;;;;;;;;;;;
2019/08/10 12:45:08;;;;;;;4.4;2.6;;;;;;;;;;;;;
2019/08/10 12:47:33;;;;;;;7.4;2.9;;;;;;;;;;;;;
2019/08/10 12:49:58;;;;;;;5.8;2.5;;;;;;;;;;;;;
2019/08/10 12:52:23;;;;;;;6.9;2.8;;;;;;;;;;;;;
2019/08/10 12:54:49;;;;;;;4.5;2.6;;;;;;;;;;;;;
2019/08/10 12:57:14;;;;;;;4.5;2.8;;;;;;;;;;;;;
2019/08/10 12:59:39;;;;;;;5;2.7;;;;;;;;;;;;;
2019/08/10 13:02:04;;;;;;;4.7;2.6;;;;;;;;;;;;;
2019/08/10 13:04:29;;;;;;;4.4;2.4;;;;;;;;;;;;;
2019/08/10 13:06:54;;;;;;;5;2.8;;;;;;;;;;;;;
2019/08/10 13:09:19;;;;;;;4.4;2.5;;;;;;;;;;;;;
2019/08/10 13:11:44;;;;;;;4.4;2.5;;;;;;;;;;;;;
2019/08/10 13:14:09;;;;;;;4.1;2.5;;;;;;;;;;;;;
2019/08/10 13:16:35;;;;;;;4.7;2.6;;;;;;;;;;;;;
2019/08/10 13:19:00;;;;;;;4.9;2.8;;;;;;;;;;;;;
2019/08/10 13:21:25;;;;;;;4.4;2.7;;;;;;;;;;;;;
2019/08/10 13:23:50;;;;;;;4.3;2.8;;;;;;;;;;;;;
2019/08/10 13:26:15;;;;;;;3.7;2.3;;;;;;;;;;;;;
2019/08/10 13:28:40;;;;;;;3.8;2.5;;;;;;;;;;;;;
2019/08/10 13:31:05;;;;;;;4.8;2.6;;;;;;;;;;;;;
2019/08/10 13:33:30;;;;;;;4.1;2.6;;;;;;;;;;;;;
2019/08/10 13:35:55;;;;;;;5;2.4;;;;;;;;;;;;;
2019/08/10 13:38:20;;;;;;;6;3.8;;;;;;;;;;;;;
2019/08/10 13:40:45;;;;;;;4.8;2.9;;;;;;;;;;;;;
2019/08/10 13:43:10;;;;;;;6;3.6;;;;;;;;;;;;;
2019/08/10 13:45:36;;;;;;;6.1;2.6;;;;;;;;;;;;;
2019/08/10 13:48:01;;;;;;;5.1;3.4;;;;;;;;;;;;;
2019/08/10 13:50:26;;;;;;;6;3.9;;;;;;;;;;;;;
2019/08/10 13:52:51;;;;;;;11.3;7.1;;;;;;;;;;;;;
2019/08/10 13:55:17;;;;;;;6.7;4.5;;;;;;;;;;;;;
2019/08/10 13:57:42;;;;;;;6.2;3.8;;;;;;;;;;;;;
2019/08/10 14:00:07;;;;;;;5.3;3.2;;;;;;;;;;;;;
2019/08/10 14:02:32;;;;;;;9.4;5.1;;;;;;;;;;;;;
2019/08/10 14:04:58;;;;;;;7.6;4.6;;;;;;;;;;;;;
2019/08/10 14:07:23;;;;;;;5.5;2.9;;;;;;;;;;;;;
2019/08/10 14:09:48;;;;;;;7.4;4.6;;;;;;;;;;;;;
2019/08/10 14:12:13;;;;;;;5.6;3.8;;;;;;;;;;;;;
2019/08/10 14:14:38;;;;;;;8;4.6;;;;;;;;;;;;;
2019/08/10 14:17:03;;;;;;;5.3;3.4;;;;;;;;;;;;;
2019/08/10 14:19:28;;;;;;;8.5;7;;;;;;;;;;;;;
2019/08/10 14:21:53;;;;;;;7.2;4.5;;;;;;;;;;;;;
2019/08/10 14:24:18;;;;;;;7.2;3.4;;;;;;;;;;;;;
2019/08/10 14:26:43;;;;;;;6.3;3.9;;;;;;;;;;;;;
2019/08/10 14:29:09;;;;;;;6.8;5.1;;;;;;;;;;;;;
2019/08/10 14:31:34;;;;;;;6.3;4.5;;;;;;;;;;;;;
2019/08/10 14:33:59;;;;;;;7.1;4.8;;;;;;;;;;;;;
2019/08/10 14:36:24;;;;;;;6.2;4.2;;;;;;;;;;;;;
2019/08/10 14:38:49;;;;;;;4.6;2.8;;;;;;;;;;;;;
2019/08/10 14:41:14;;;;;;;4.4;2.5;;;;;;;;;;;;;
2019/08/10 14:43:39;;;;;;;4.1;2.3;;;;;;;;;;;;;
2019/08/10 14:46:04;;;;;;;5.1;2.3;;;;;;;;;;;;;
2019/08/10 14:48:30;;;;;;;4.5;2;;;;;;;;;;;;;
2019/08/10 14:50:55;;;;;;;4.4;2.2;;;;;;;;;;;;;
2019/08/10 14:53:20;;;;;;;5;2.4;;;;;;;;;;;;;
2019/08/10 14:55:45;;;;;;;3.9;2.3;;;;;;;;;;;;;
2019/08/10 14:58:10;;;;;;;4;2.3;;;;;;;;;;;;;
2019/08/10 15:00:35;;;;;;;4.7;2.3;;;;;;;;;;;;;
2019/08/10 15:03:00;;;;;;;4;2.1;;;;;;;;;;;;;
2019/08/10 15:05:25;;;;;;;4.2;2.2;;;;;;;;;;;;;
2019/08/10 15:07:50;;;;;;;4.2;2.3;;;;;;;;;;;;;
2019/08/10 15:10:16;;;;;;;5.2;2.4;;;;;;;;;;;;;